Time;durP1;ratioP1;P1;durP2;ratioP2;P2;SDS_P1;SDS_P2;PMS_P1;PMS_P2;Temp;Humidity;BMP_temperature;BMP_pressure;BME280_temperature;BME280_humidity;BME280_pressure;Samples;Min_cycle;Max_cycle;Signal;HPM_P1;HPM_P2
2022/06/23 00:01:57;;;;;;;4.53;3.47;;;13.90;99.90;;;;;;5079309;28;20036;-66
2022/06/23 00:04:28;;;;;;;4.82;3.47;;;13.80;99.90;;;;;;5079247;28;20040;-66
2022/06/23 00:06:59;;;;;;;4.32;3.55;;;13.80;99.90;;;;;;5080510;28;20048;-66
2022/06/23 00:09:32;;;;;;;3.60;2.83;;;13.80;99.90;;;;;;5079627;28;20143;-66
2022/06/23 00:11:57;;;;;;;4.20;3.67;;;13.80;99.90;;;;;;5082058;28;20122;-66
2022/06/23 00:14:25;;;;;;;4.18;3.78;;;13.70;99.90;;;;;;5079353;28;20135;-66
2022/06/23 00:16:50;;;;;;;4.93;4.40;;;13.70;99.90;;;;;;5079999;28;20044;-66
2022/06/23 00:19:16;;;;;;;4.50;3.95;;;13.70;99.90;;;;;;5067560;28;20054;-66
2022/06/23 00:21:51;;;;;;;4.75;4.30;;;13.60;99.90;;;;;;5064142;28;20057;-66
2022/06/23 00:24:23;;;;;;;5.63;4.53;;;13.60;99.90;;;;;;5081648;28;20508;-66
2022/06/23 00:26:50;;;;;;;5.20;4.80;;;13.50;99.90;;;;;;5083618;28;20131;-66
2022/06/23 00:29:18;;;;;;;6.93;4.25;;;13.50;99.90;;;;;;5080289;28;20044;-66
2022/06/23 00:32:01;;;;;;;4.60;4.18;;;13.50;99.90;;;;;;5064247;28;20040;-66
2022/06/23 00:34:33;;;;;;;5.47;4.22;;;13.40;99.90;;;;;;5083185;28;20048;-66
2022/06/23 00:37:06;;;;;;;4.90;4.50;;;13.50;99.90;;;;;;5083189;28;20055;-66
2022/06/23 00:39:54;;;;;;;5.35;4.57;;;13.40;99.90;;;;;;5066114;28;20044;-66
2022/06/23 00:42:23;;;;;;;5.50;4.15;;;13.40;99.90;;;;;;5077884;28;20035;-66
2022/06/23 00:45:11;;;;;;;5.65;4.80;;;13.40;99.90;;;;;;5066563;28;20078;-66
2022/06/23 00:47:53;;;;;;;6.43;5.22;;;13.30;99.90;;;;;;5081615;28;20118;-66
2022/06/23 00:50:35;;;;;;;5.57;5.07;;;13.30;99.90;;;;;;5080292;28;20051;-66
2022/06/23 00:53:20;;;;;;;5.25;4.40;;;13.30;99.90;;;;;;5083005;28;20043;-66
2022/06/23 00:56:18;;;;;;;8.60;5.63;;;13.20;99.90;;;;;;5068006;28;20091;-66
2022/06/23 00:59:02;;;;;;;5.93;5.07;;;13.20;99.90;;;;;;5080083;28;20125;-66
2022/06/23 01:01:54;;;;;;;9.65;5.82;;;13.20;99.90;;;;;;5068777;28;20047;-66
2022/06/23 01:04:47;;;;;;;7.72;5.38;;;13.10;99.90;;;;;;5082022;28;20118;-66
2022/06/23 01:07:49;;;;;;;5.45;4.95;;;13.10;99.90;;;;;;5082507;28;20040;-66
2022/06/23 01:10:28;;;;;;;5.72;5.22;;;13.10;99.90;;;;;;5067433;28;20039;-66
2022/06/23 01:13:03;;;;;;;6.97;5.80;;;13.10;99.90;;;;;;5069798;28;20140;-66
2022/06/23 01:15:32;;;;;;;5.60;5.10;;;13.10;99.90;;;;;;5068524;28;20093;-66
2022/06/23 01:18:11;;;;;;;7.15;6.45;;;13.10;99.90;;;;;;5068694;28;20543;-66
2022/06/23 01:20:39;;;;;;;6.45;5.85;;;13.00;99.90;;;;;;5086035;28;20043;-66
2022/06/23 01:23:30;;;;;;;7.43;6.18;;;13.00;99.90;;;;;;5070874;28;20077;-66
2022/06/23 01:26:50;;;;;;;8.85;6.80;;;13.00;99.90;;;;;;5083153;28;20032;-66
2022/06/23 01:29:33;;;;;;;9.35;6.45;;;12.90;99.90;;;;;;5019505;28;21052;-66
2022/06/23 01:32:22;;;;;;;7.25;6.30;;;12.90;99.90;;;;;;5062872;28;20639;-66
2022/06/23 01:35:12;;;;;;;8.73;6.47;;;12.90;99.90;;;;;;5083264;28;20036;-66
2022/06/23 01:37:49;;;;;;;7.35;6.32;;;12.90;99.90;;;;;;5082321;28;20847;-66
2022/06/23 01:40:39;;;;;;;6.95;6.25;;;12.90;99.90;;;;;;5070004;28;20036;-66
2022/06/23 01:43:14;;;;;;;7.28;6.57;;;12.80;99.90;;;;;;5085246;28;20398;-66
2022/06/23 01:45:47;;;;;;;8.27;7.50;;;12.80;99.90;;;;;;5063679;28;20054;-66
2022/06/23 01:51:28;;;;;;;9.05;7.32;;;12.70;99.90;;;;;;5065867;28;20040;-66
2022/06/23 01:54:14;;;;;;;8.88;7.30;;;12.70;99.90;;;;;;5066249;28;20044;-66
2022/06/23 01:56:47;;;;;;;9.20;7.38;;;12.70;99.90;;;;;;5064285;28;20059;-66
2022/06/23 01:59:23;;;;;;;7.85;7.05;;;12.70;99.90;;;;;;5065576;28;20521;-66
2022/06/23 02:02:06;;;;;;;7.53;6.82;;;12.60;99.90;;;;;;5084735;28;20060;-65
2022/06/23 02:04:55;;;;;;;7.82;7.03;;;12.70;99.90;;;;;;5082300;28;20524;-66
2022/06/23 02:07:36;;;;;;;8.02;7.32;;;12.70;99.90;;;;;;5081939;28;20028;-65
2022/06/23 02:10:09;;;;;;;7.70;7.00;;;12.60;99.90;;;;;;5065717;28;20044;-66
2022/06/23 02:12:42;;;;;;;9.85;8.20;;;12.60;99.90;;;;;;5082147;28;20128;-66
2022/06/23 02:15:12;;;;;;;8.45;7.55;;;12.60;99.90;;;;;;5083371;28;20085;-66
2022/06/23 02:17:40;;;;;;;7.78;7.00;;;12.60;99.90;;;;;;5083499;28;20039;-66
2022/06/23 02:20:37;;;;;;;8.98;7.55;;;12.60;99.90;;;;;;5086227;28;20047;-66
2022/06/23 02:23:30;;;;;;;8.43;7.63;;;12.60;99.90;;;;;;5064642;28;20039;-66
2022/06/23 02:26:12;;;;;;;8.45;7.65;;;12.60;99.90;;;;;;5081563;28;20048;-66
2022/06/23 02:29:23;;;;;;;8.63;7.82;;;12.60;99.90;;;;;;5083201;28;20032;-66
2022/06/23 02:31:55;;;;;;;8.82;7.47;;;12.60;99.90;;;;;;5049975;28;20079;-66
2022/06/23 02:34:31;;;;;;;8.57;7.60;;;12.60;99.90;;;;;;5064790;28;20044;-66
2022/06/23 02:37:34;;;;;;;8.15;7.07;;;12.80;99.90;;;;;;5080316;28;20076;-66
2022/06/23 02:40:00;;;;;;;8.38;7.57;;;12.50;99.90;;;;;;5063652;28;20051;-66
2022/06/23 02:42:30;;;;;;;9.43;8.43;;;12.50;99.90;;;;;;5066474;28;20532;-66
2022/06/23 02:45:30;;;;;;;9.88;8.82;;;12.50;99.90;;;;;;5062585;28;20494;-66
2022/06/23 02:47:59;;;;;;;11.23;8.15;;;12.50;99.90;;;;;;5030630;28;20056;-66
2022/06/23 02:50:42;;;;;;;8.18;7.47;;;12.50;99.90;;;;;;5068658;28;20390;-66
2022/06/23 02:53:34;;;;;;;10.13;9.05;;;12.50;99.90;;;;;;5082881;28;20086;-66
2022/06/23 02:56:21;;;;;;;8.90;8.00;;;12.50;99.90;;;;;;5070876;28;20036;-66
2022/06/23 02:59:04;;;;;;;10.07;8.35;;;12.50;99.90;;;;;;5065972;28;20032;-66
2022/06/23 03:01:55;;;;;;;10.00;8.90;;;12.50;99.90;;;;;;5082135;28;20538;-66
2022/06/23 03:04:32;;;;;;;10.15;8.95;;;12.50;99.90;;;;;;5079455;28;20075;-66
2022/06/23 03:07:07;;;;;;;11.32;8.55;;;12.50;99.90;;;;;;5068962;28;20028;-66
2022/06/23 03:09:41;;;;;;;9.25;8.35;;;12.50;99.90;;;;;;5049604;28;20089;-66
2022/06/23 03:12:15;;;;;;;9.77;8.43;;;12.50;99.90;;;;;;5082746;28;20742;-66
2022/06/23 03:14:56;;;;;;;11.52;9.10;;;12.50;99.90;;;;;;5082908;28;20073;-66
2022/06/23 03:17:28;;;;;;;8.88;7.97;;;12.50;99.90;;;;;;5075291;28;20122;-66
2022/06/23 03:20:20;;;;;;;9.77;8.88;;;12.50;99.90;;;;;;5065985;28;20044;-66
2022/06/23 03:22:52;;;;;;;9.70;8.70;;;12.50;99.90;;;;;;5064688;28;20131;-66
2022/06/23 03:25:20;;;;;;;9.35;8.38;;;12.50;99.90;;;;;;5065388;28;20433;-66
2022/06/23 03:27:58;;;;;;;11.25;9.38;;;12.50;99.90;;;;;;5081142;28;20047;-66
2022/06/23 03:31:03;;;;;;;11.18;8.32;;;12.50;99.90;;;;;;5081964;28;20051;-66
2022/06/23 03:33:46;;;;;;;9.43;8.50;;;12.50;99.90;;;;;;5063600;28;20051;-66
2022/06/23 03:36:27;;;;;;;9.55;7.88;;;12.50;99.90;;;;;;5064867;28;20047;-66
2022/06/23 03:41:55;;;;;;;9.23;8.27;;;12.60;99.90;;;;;;5067590;28;20135;-66
2022/06/23 03:44:28;;;;;;;11.50;8.80;;;12.50;99.90;;;;;;5084302;28;20076;-66
2022/06/23 03:47:03;;;;;;;9.40;8.40;;;12.60;99.90;;;;;;5082095;28;20054;-66
2022/06/23 03:49:41;;;;;;;10.30;9.23;;;12.60;99.90;;;;;;5079788;28;20036;-66
2022/06/23 03:52:26;;;;;;;10.25;9.18;;;12.60;99.90;;;;;;5066805;28;20028;-66
2022/06/23 03:54:59;;;;;;;10.40;9.40;;;12.60;99.90;;;;;;5065090;28;20043;-66
2022/06/23 03:57:33;;;;;;;10.40;8.88;;;12.60;99.90;;;;;;5081139;28;20111;-66
2022/06/23 04:00:22;;;;;;;10.20;9.05;;;12.70;99.90;;;;;;5081745;28;20039;-66
2022/06/23 04:03:14;;;;;;;9.88;7.82;;;12.70;99.90;;;;;;5081227;28;20098;-66
2022/06/23 04:05:54;;;;;;;10.93;8.25;;;12.70;99.90;;;;;;5073643;28;20135;-66
2022/06/23 04:08:22;;;;;;;8.23;7.53;;;12.80;99.90;;;;;;5068276;28;20048;-66
2022/06/23 04:10:50;;;;;;;8.65;7.93;;;13.40;99.90;;;;;;5082828;28;20044;-66
2022/06/23 04:13:30;;;;;;;7.32;6.63;;;14.20;99.90;;;;;;5078928;28;20029;-66
2022/06/23 04:16:08;;;;;;;7.47;6.75;;;14.30;99.90;;;;;;5060758;28;20532;-66
2022/06/23 04:18:39;;;;;;;8.35;7.57;;;14.40;99.90;;;;;;5078747;28;20067;-66
2022/06/23 04:21:14;;;;;;;8.40;7.50;;;14.40;99.90;;;;;;5064571;28;20035;-65
2022/06/23 04:23:49;;;;;;;7.53;6.85;;;14.30;99.90;;;;;;5065399;28;20071;-66
2022/06/23 04:26:20;;;;;;;8.30;7.60;;;14.40;99.90;;;;;;5082076;28;20036;-66
2022/06/23 04:28:49;;;;;;;8.13;7.43;;;14.40;99.90;;;;;;5065478;28;20512;-66
2022/06/23 04:31:23;;;;;;;8.43;7.35;;;14.50;99.90;;;;;;5065640;28;20046;-66
2022/06/23 04:33:49;;;;;;;8.15;7.35;;;14.80;99.90;;;;;;5083510;28;20108;-66
2022/06/23 04:36:34;;;;;;;7.30;6.60;;;15.40;99.90;;;;;;5069361;28;20052;-66
2022/06/23 04:39:25;;;;;;;6.90;5.95;;;16.80;99.90;;;;;;5069155;28;20044;-66
2022/06/23 04:42:07;;;;;;;6.43;5.90;;;18.30;99.90;;;;;;5085516;28;20044;-66
2022/06/23 04:44:35;;;;;;;6.53;5.15;;;19.00;99.90;;;;;;5085917;28;20042;-66
2022/06/23 04:47:21;;;;;;;7.90;5.22;;;20.00;99.90;;;;;;5084165;28;20046;-66
2022/06/23 04:49:54;;;;;;;6.53;5.45;;;21.20;99.90;;;;;;5081022;28;20123;-67
2022/06/23 04:52:43;;;;;;;6.10;5.50;;;22.00;99.90;;;;;;5084347;28;20470;-67
2022/06/23 04:55:28;;;;;;;5.22;4.70;;;22.90;99.90;;;;;;5073819;28;20040;-67
2022/06/23 04:58:07;;;;;;;5.68;5.18;;;23.50;99.90;;;;;;5065121;28;20040;-67
2022/06/23 05:00:40;;;;;;;7.15;4.95;;;23.90;99.90;;;;;;5062869;28;20045;-67
2022/06/23 05:03:18;;;;;;;5.47;4.97;;;24.70;99.90;;;;;;5066906;28;20447;-67
2022/06/23 05:05:44;;;;;;;7.35;5.47;;;24.80;99.90;;;;;;5081537;28;20044;-67
2022/06/23 05:08:23;;;;;;;6.75;5.25;;;25.30;99.90;;;;;;5069350;28;20067;-67
2022/06/23 05:10:54;;;;;;;5.72;5.10;;;25.60;99.90;;;;;;5082006;28;20078;-67
2022/06/23 05:13:35;;;;;;;7.65;5.20;;;26.00;99.90;;;;;;5083949;28;20057;-67
2022/06/23 05:16:08;;;;;;;4.55;4.25;;;26.00;99.90;;;;;;5068013;28;20056;-67
2022/06/23 05:18:42;;;;;;;4.68;4.28;;;26.80;99.90;;;;;;5084620;28;20497;-67
2022/06/23 05:21:17;;;;;;;6.25;4.63;;;27.10;99.90;;;;;;5072614;28;20032;-67
2022/06/23 05:23:44;;;;;;;;;;;26.60;99.90;;;;;;5082253;28;20036;-67
2022/06/23 05:26:21;;;;;;;5.15;4.72;;;25.50;99.90;;;;;;5065466;28;19920;-67
2022/06/23 05:29:05;;;;;;;7.70;5.32;;;24.70;99.90;;;;;;5082676;28;20640;-68
2022/06/23 05:31:36;;;;;;;6.85;5.20;;;23.80;99.90;;;;;;5086812;28;20032;-67
2022/06/23 05:34:08;;;;;;;8.65;5.55;;;23.00;99.90;;;;;;5080015;28;20093;-67
2022/06/23 05:37:02;;;;;;;6.63;4.50;;;22.60;99.90;;;;;;5081224;28;20040;-67
2022/06/23 05:39:34;;;;;;;7.05;5.45;;;22.30;99.90;;;;;;5040998;28;20068;-67
2022/06/23 05:42:06;;;;;;;4.93;4.53;;;22.10;99.90;;;;;;5082771;28;20051;-67
2022/06/23 05:44:40;;;;;;;8.40;4.78;;;22.00;99.90;;;;;;5080569;28;20386;-67
2022/06/23 05:47:10;;;;;;;5.50;4.90;;;22.00;99.90;;;;;;5067620;28;20115;-67
2022/06/23 05:49:43;;;;;;;5.28;4.88;;;22.00;99.90;;;;;;5080968;28;20064;-67
2022/06/23 05:52:38;;;;;;;5.57;5.07;;;22.00;99.90;;;;;;5083308;28;20040;-67
2022/06/23 05:55:19;;;;;;;6.83;6.13;;;21.80;99.90;;;;;;5080562;28;20047;-67
2022/06/23 05:57:55;;;;;;;8.20;4.97;;;21.70;99.90;;;;;;5082630;28;20040;-67
2022/06/23 06:00:53;;;;;;;6.57;5.13;;;21.80;99.90;;;;;;5063710;28;20040;-67
2022/06/23 06:03:39;;;;;;;6.13;4.38;;;21.80;99.90;;;;;;5061263;28;20541;-67
2022/06/23 06:06:06;;;;;;;8.75;4.20;;;21.80;99.90;;;;;;5079793;28;20510;-67
2022/06/23 06:09:35;;;;;;;5.07;4.07;;;21.90;99.90;;;;;;5070678;28;20036;-67
2022/06/23 06:11:23;;;;;;;9.30;4.80;;;22.00;99.90;;;;;;5062438;28;20052;-67
2022/06/23 06:13:49;;;;;;;6.78;4.65;;;22.20;99.90;;;;;;5085319;28;20082;-67
2022/06/23 06:16:15;;;;;;;6.93;4.72;;;22.20;99.90;;;;;;5065757;28;20493;-67
2022/06/23 06:18:43;;;;;;;6.35;4.95;;;22.20;99.90;;;;;;5063501;28;20040;-67
2022/06/23 06:21:17;;;;;;;5.47;4.75;;;22.20;99.90;;;;;;5076723;28;20086;-67
2022/06/23 06:23:51;;;;;;;4.28;3.88;;;22.20;99.90;;;;;;5066072;28;20044;-67
2022/06/23 06:26:29;;;;;;;5.23;4.73;;;22.40;99.90;;;;;;5083935;28;20059;-67
2022/06/23 06:28:59;;;;;;;4.53;4.13;;;22.50;99.90;;;;;;5085284;28;20394;-67
2022/06/23 06:31:32;;;;;;;8.52;5.72;;;22.80;99.90;;;;;;5082279;28;20149;-67
2022/06/23 06:34:20;;;;;;;6.90;4.13;;;22.90;99.90;;;;;;5077212;28;20032;-67
2022/06/23 06:36:49;;;;;;;9.15;4.45;;;23.10;99.90;;;;;;5082969;28;20055;-67
2022/06/23 06:39:38;;;;;;;6.10;4.25;;;23.10;99.90;;;;;;5081032;28;21057;-67
2022/06/23 06:42:14;;;;;;;4.57;4.18;;;23.20;99.90;;;;;;5080654;28;20040;-67
2022/06/23 06:44:47;;;;;;;6.50;4.57;;;23.30;99.90;;;;;;5066170;28;20032;-67
2022/06/23 06:47:23;;;;;;;6.38;4.40;;;23.40;99.90;;;;;;5048511;28;20378;-67
2022/06/23 06:49:49;;;;;;;5.38;4.28;;;23.50;99.90;;;;;;5063541;28;20053;-67
2022/06/23 06:52:16;;;;;;;5.65;4.15;;;23.50;99.90;;;;;;5062078;28;20044;-67
2022/06/23 06:55:04;;;;;;;12.45;3.58;;;23.50;99.90;;;;;;5083905;28;20461;-67
2022/06/23 06:57:38;;;;;;;6.63;4.47;;;23.60;99.90;;;;;;5066413;28;20040;-67
2022/06/23 07:00:07;;;;;;;4.75;3.75;;;23.80;99.90;;;;;;5069190;28;20040;-67
2022/06/23 07:02:42;;;;;;;5.15;4.25;;;23.70;99.90;;;;;;5079587;28;20384;-67
2022/06/23 07:05:37;;;;;;;10.25;4.90;;;23.80;99.90;;;;;;5044367;28;20068;-66
2022/06/23 07:08:37;;;;;;;9.77;4.70;;;24.00;99.90;;;;;;5055996;28;20116;-66
2022/06/23 07:11:43;;;;;;;6.45;4.22;;;24.10;99.90;;;;;;5051726;28;20719;-67
2022/06/23 07:14:19;;;;;;;9.13;4.30;;;24.30;99.90;;;;;;5074287;28;20048;-67
2022/06/23 07:16:54;;;;;;;6.75;3.72;;;24.30;99.90;;;;;;5065572;28;20512;-67
2022/06/23 07:19:29;;;;;;;7.45;3.63;;;24.20;99.90;;;;;;5080642;28;20044;-67
2022/06/23 07:22:36;;;;;;;7.38;3.00;;;24.30;99.90;;;;;;5065426;28;20505;-67
2022/06/23 07:25:09;;;;;;;3.55;3.13;;;24.20;99.90;;;;;;5061953;28;20508;-67
2022/06/23 07:27:41;;;;;;;5.75;3.30;;;24.40;99.90;;;;;;5082108;28;20046;-67
2022/06/23 07:30:12;;;;;;;3.40;3.00;;;24.60;99.90;;;;;;5063964;28;20047;-66
2022/06/23 07:32:45;;;;;;;5.75;3.28;;;24.80;99.90;;;;;;5078731;28;20097;-66
2022/06/23 07:35:29;;;;;;;6.22;3.53;;;24.80;99.90;;;;;;5063416;28;20076;-67
2022/06/23 07:38:10;;;;;;;3.93;3.43;;;24.70;99.90;;;;;;5070528;28;20131;-67
2022/06/23 07:40:46;;;;;;;6.72;2.92;;;24.80;99.90;;;;;;5080112;28;20047;-67
2022/06/23 07:43:28;;;;;;;4.63;3.10;;;24.80;99.90;;;;;;5065351;28;20043;-67
2022/06/23 07:45:57;;;;;;;6.50;3.13;;;24.80;99.90;;;;;;5078881;28;20056;-67
2022/06/23 07:48:25;;;;;;;11.30;3.53;;;24.90;99.90;;;;;;5082278;28;20052;-67
2022/06/23 07:51:17;;;;;;;4.65;2.67;;;25.00;99.90;;;;;;5065752;28;20040;-67
2022/06/23 07:53:55;;;;;;;6.15;3.58;;;25.20;99.90;;;;;;5083772;28;20051;-68
2022/06/23 07:56:27;;;;;;;5.90;2.72;;;25.30;99.90;;;;;;5082267;28;20574;-67
2022/06/23 07:58:59;;;;;;;13.05;3.25;;;25.30;99.90;;;;;;5078128;28;20432;-67
2022/06/23 08:01:37;;;;;;;5.60;2.60;;;25.30;99.90;;;;;;5062698;28;20517;-67
2022/06/23 08:04:25;;;;;;;6.45;2.45;;;25.40;99.90;;;;;;5076814;28;20095;-67
2022/06/23 08:06:52;;;;;;;5.45;2.13;;;25.30;99.90;;;;;;5083001;28;20067;-67
2022/06/23 08:09:23;;;;;;;4.20;2.35;;;25.70;99.90;;;;;;5051271;28;20389;-67
2022/06/23 08:14:36;;;;;;;;;;;25.70;99.90;;;;;;5066408;28;20048;-67
2022/06/23 08:17:12;;;;;;;6.20;2.15;;;25.50;99.90;;;;;;5083145;28;19922;-68
2022/06/23 08:19:51;;;;;;;2.25;1.85;;;25.60;99.90;;;;;;5088986;28;20047;-67
2022/06/23 08:22:22;;;;;;;2.63;1.77;;;25.70;99.90;;;;;;5069966;28;20032;-67
2022/06/23 08:24:52;;;;;;;6.75;1.90;;;25.70;99.90;;;;;;5082245;28;20485;-67
2022/06/23 08:27:28;;;;;;;2.08;1.42;;;25.70;99.90;;;;;;5083097;28;20044;-67
2022/06/23 08:30:00;;;;;;;4.05;1.52;;;25.90;99.90;;;;;;5083168;28;20528;-67
2022/06/23 08:32:26;;;;;;;4.30;1.70;;;26.10;99.90;;;;;;5067597;28;20056;-67
2022/06/23 08:35:05;;;;;;;3.05;1.40;;;26.10;99.90;;;;;;5079897;28;20045;-67
2022/06/23 08:37:50;;;;;;;5.43;1.98;;;26.20;99.90;;;;;;5068502;28;20120;-67
2022/06/23 08:40:28;;;;;;;3.90;1.40;;;26.30;99.90;;;;;;5084194;28;20497;-67
2022/06/23 08:43:16;;;;;;;6.82;1.95;;;26.50;99.90;;;;;;5080965;28;20070;-67
2022/06/23 08:45:57;;;;;;;6.05;1.75;;;26.50;99.90;;;;;;5083736;28;20036;-67
2022/06/23 08:48:31;;;;;;;6.22;1.88;;;26.60;99.90;;;;;;5064890;28;20036;-68
2022/06/23 08:51:09;;;;;;;3.70;1.60;;;26.70;99.90;;;;;;5071931;28;20050;-67
2022/06/23 08:53:53;;;;;;;3.30;2.00;;;26.90;99.90;;;;;;5066408;28;20040;-68
2022/06/23 08:56:29;;;;;;;5.30;1.88;;;27.00;99.90;;;;;;5068152;28;20482;-68
2022/06/23 08:59:15;;;;;;;9.48;2.83;;;26.80;99.90;;;;;;5064936;28;20430;-67
2022/06/23 09:02:03;;;;;;;6.22;1.67;;;26.90;99.90;;;;;;5082819;28;20043;-67
2022/06/23 09:04:35;;;;;;;4.57;2.00;;;26.90;99.90;;;;;;5067383;28;20037;-69
2022/06/23 09:07:24;;;;;;;5.07;1.75;;;26.90;99.90;;;;;;5062682;28;20040;-67
2022/06/23 09:10:14;;;;;;;5.25;2.10;;;26.90;99.90;;;;;;5064206;28;20041;-67
2022/06/23 09:12:53;;;;;;;3.65;1.95;;;27.20;99.90;;;;;;5084269;28;20045;-68
2022/06/23 09:15:50;;;;;;;4.20;1.80;;;27.30;99.90;;;;;;5081129;28;20065;-67
2022/06/23 09:18:35;;;;;;;3.40;1.85;;;27.40;99.90;;;;;;5079186;28;20040;-67
2022/06/23 09:21:19;;;;;;;5.15;1.70;;;27.50;99.90;;;;;;5082036;28;20079;-68
2022/06/23 09:24:14;;;;;;;4.97;1.65;;;27.60;99.90;;;;;;5065189;28;20048;-68
2022/06/23 09:26:58;;;;;;;4.95;1.80;;;27.60;99.90;;;;;;5064095;28;20379;-68
2022/06/23 09:29:35;;;;;;;3.65;1.90;;;27.50;99.20;;;;;;5067892;28;20102;-68
2022/06/23 09:32:29;;;;;;;3.28;1.70;;;27.60;98.80;;;;;;5068018;28;20044;-68
2022/06/23 09:35:34;;;;;;;4.00;1.77;;;27.50;99.00;;;;;;5064841;28;20037;-67
2022/06/23 09:38:50;;;;;;;3.60;1.70;;;27.70;99.90;;;;;;5082668;28;20825;-67
2022/06/23 09:42:01;;;;;;;2.83;1.58;;;28.00;99.90;;;;;;5043085;28;20052;-67
2022/06/23 09:44:37;;;;;;;7.78;2.85;;;28.20;99.90;;;;;;5078966;28;20036;-68
2022/06/23 09:47:26;;;;;;;4.38;1.80;;;28.10;98.40;;;;;;5082925;28;20037;-68
2022/06/23 09:50:12;;;;;;;5.20;1.55;;;28.10;98.70;;;;;;5080902;28;20043;-68
2022/06/23 09:53:04;;;;;;;5.22;1.92;;;28.10;98.90;;;;;;5086276;28;20171;-68
2022/06/23 09:55:38;;;;;;;3.50;1.60;;;28.10;98.90;;;;;;5069888;28;21596;-68
2022/06/23 09:58:41;;;;;;;5.53;2.05;;;28.20;99.20;;;;;;5063652;28;20115;-67
2022/06/23 10:01:10;;;;;;;3.47;1.40;;;28.20;98.10;;;;;;5083814;28;21526;-68
2022/06/23 10:03:56;;;;;;;6.00;1.65;;;28.20;98.60;;;;;;5067330;28;20058;-68
2022/06/23 10:06:37;;;;;;;4.40;1.45;;;28.20;97.60;;;;;;5066045;28;20082;-67
2022/06/23 10:09:21;;;;;;;4.70;1.65;;;28.20;97.90;;;;;;5061251;28;20506;-67
2022/06/23 10:12:24;;;;;;;6.18;1.35;;;28.40;98.80;;;;;;5062136;28;20043;-68
2022/06/23 10:15:27;;;;;;;5.95;1.40;;;28.70;98.70;;;;;;5081634;28;20036;-67
2022/06/23 10:18:27;;;;;;;4.18;1.65;;;29.00;97.40;;;;;;5081244;28;20032;-68
2022/06/23 10:21:20;;;;;;;3.50;1.52;;;28.90;95.80;;;;;;5080732;28;20044;-67
2022/06/23 10:24:23;;;;;;;4.35;1.73;;;28.70;97.10;;;;;;5063155;28;20051;-67
2022/06/23 10:26:57;;;;;;;4.53;2.15;;;28.90;97.50;;;;;;5062540;28;20124;-68
2022/06/23 10:29:51;;;;;;;4.33;1.90;;;28.90;97.60;;;;;;5059420;28;20036;-66
2022/06/23 10:32:45;;;;;;;9.95;2.40;;;28.90;97.40;;;;;;5076819;28;20033;-67
2022/06/23 10:35:48;;;;;;;3.55;2.10;;;28.80;97.30;;;;;;5057718;28;20052;-67
2022/06/23 10:38:57;;;;;;;6.18;2.35;;;28.90;96.80;;;;;;5081723;28;20088;-68
2022/06/23 10:41:42;;;;;;;7.32;1.75;;;28.80;95.90;;;;;;5079559;28;20127;-69
2022/06/23 10:44:37;;;;;;;6.43;2.17;;;28.80;95.90;;;;;;5080260;28;20056;-68
2022/06/23 10:47:33;;;;;;;2.53;1.65;;;28.80;97.80;;;;;;5081677;28;20042;-67
2022/06/23 10:50:46;;;;;;;5.45;2.00;;;29.10;97.60;;;;;;5080947;28;20040;-66
2022/06/23 10:53:32;;;;;;;4.47;1.60;;;29.20;96.50;;;;;;5068161;28;20063;-67
2022/06/23 10:56:27;;;;;;;6.00;1.52;;;29.00;96.60;;;;;;5081970;28;20123;-67
2022/06/23 10:59:12;;;;;;;1.98;1.70;;;29.00;97.10;;;;;;5083159;28;20036;-67
2022/06/23 11:01:57;;;;;;;3.83;2.00;;;28.90;95.80;;;;;;5059207;28;20044;-67
2022/06/23 11:04:51;;;;;;;4.20;1.95;;;28.90;97.20;;;;;;5061501;28;20159;-67
2022/06/23 11:07:30;;;;;;;5.60;1.70;;;28.90;97.50;;;;;;5068244;28;20047;-67
2022/06/23 11:10:27;;;;;;;1.73;1.55;;;29.00;96.60;;;;;;5078870;28;20048;-67
2022/06/23 11:13:08;;;;;;;3.47;1.60;;;29.00;96.70;;;;;;5082260;28;20474;-67
2022/06/23 11:15:57;;;;;;;4.90;1.60;;;29.10;95.80;;;;;;5076964;28;20043;-67
2022/06/23 11:19:02;;;;;;;6.70;1.67;;;29.10;95.40;;;;;;5081181;28;20036;-67
2022/06/23 11:22:01;;;;;;;2.58;1.75;;;29.10;96.00;;;;;;5080163;28;20040;-67
2022/06/23 11:24:35;;;;;;;4.72;1.23;;;29.10;96.60;;;;;;5082779;28;20912;-66
2022/06/23 11:27:38;;;;;;;4.82;1.58;;;29.30;96.70;;;;;;5079001;28;20036;-67
2022/06/23 11:30:14;;;;;;;2.58;1.40;;;29.60;97.60;;;;;;5052261;28;20052;-67
2022/06/23 11:33:03;;;;;;;3.25;1.63;;;29.60;95.40;;;;;;5063415;28;21201;-67
2022/06/23 11:35:37;;;;;;;4.63;1.52;;;29.40;94.30;;;;;;5082318;28;20055;-68
2022/06/23 11:38:31;;;;;;;2.45;1.38;;;29.30;94.60;;;;;;5066768;28;20048;-67
2022/06/23 11:41:37;;;;;;;2.28;1.13;;;29.30;94.20;;;;;;5058809;28;20048;-68
2022/06/23 11:44:41;;;;;;;5.80;1.35;;;29.20;92.70;;;;;;5032989;28;20147;-67
2022/06/23 11:47:20;;;;;;;5.93;1.23;;;29.20;94.30;;;;;;5010399;28;20117;-67
2022/06/23 11:50:08;;;;;;;3.25;1.40;;;29.50;94.80;;;;;;5004622;28;20045;-67
2022/06/23 11:52:33;;;;;;;3.70;1.02;;;29.60;93.30;;;;;;5042363;28;20052;-67
2022/06/23 11:55:31;;;;;;;2.28;1.20;;;29.60;93.00;;;;;;5062859;28;20109;-67
2022/06/23 11:58:35;;;;;;;3.78;1.27;;;29.60;93.70;;;;;;5065061;28;20043;-67
2022/06/23 12:01:21;;;;;;;3.05;1.60;;;29.70;93.30;;;;;;5082261;28;20032;-67
2022/06/23 12:04:18;;;;;;;2.25;0.98;;;29.90;94.00;;;;;;5061126;28;20076;-66
2022/06/23 12:07:21;;;;;;;4.97;1.95;;;30.00;93.20;;;;;;5062090;28;20053;-66
2022/06/23 12:10:00;;;;;;;2.30;1.13;;;30.30;91.50;;;;;;5079577;28;20047;-67
2022/06/23 12:12:27;;;;;;;6.05;1.25;;;30.20;92.70;;;;;;5061818;28;20036;-67
2022/06/23 12:14:53;;;;;;;1.85;1.05;;;30.20;92.10;;;;;;5080150;28;20076;-67
2022/06/23 12:17:40;;;;;;;3.70;1.17;;;30.00;92.30;;;;;;5061405;28;20070;-67
2022/06/23 12:20:24;;;;;;;2.80;1.20;;;30.00;93.20;;;;;;5081284;28;20028;-66
2022/06/23 12:23:34;;;;;;;5.25;1.23;;;30.00;92.20;;;;;;5065362;28;20050;-66
2022/06/23 12:26:07;;;;;;;3.80;1.60;;;29.90;92.00;;;;;;5079912;28;20533;-66
2022/06/23 12:28:44;;;;;;;4.80;1.17;;;30.00;91.90;;;;;;5062113;28;20046;-66
2022/06/23 12:31:39;;;;;;;7.32;1.25;;;30.00;92.20;;;;;;5081366;28;20046;-66
2022/06/23 12:34:26;;;;;;;2.65;1.42;;;30.20;91.80;;;;;;5064642;28;20035;-67
2022/06/23 12:36:58;;;;;;;5.22;1.00;;;30.40;91.30;;;;;;5058469;28;20044;-66
2022/06/23 12:40:05;;;;;;;3.20;0.95;;;30.50;91.60;;;;;;5082506;28;20041;-66
2022/06/23 12:42:39;;;;;;;4.20;1.10;;;30.60;91.90;;;;;;5065402;28;20063;-67
2022/06/23 12:45:22;;;;;;;5.85;1.27;;;30.50;91.40;;;;;;5082999;28;20100;-67
2022/06/23 12:48:06;;;;;;;5.53;1.20;;;30.70;91.60;;;;;;5067648;28;20486;-67
2022/06/23 12:50:40;;;;;;;3.22;1.42;;;30.60;90.70;;;;;;5083321;28;20036;-67
2022/06/23 12:53:05;;;;;;;6.35;1.35;;;30.60;90.20;;;;;;5084960;28;20146;-67
2022/06/23 12:55:40;;;;;;;4.22;0.98;;;30.60;90.90;;;;;;5082210;28;20507;-66
2022/06/23 12:58:17;;;;;;;2.05;0.93;;;30.50;90.80;;;;;;5083861;28;20032;-67
2022/06/23 13:01:04;;;;;;;3.42;1.17;;;30.60;91.10;;;;;;5087077;28;20524;-67
2022/06/23 13:03:42;;;;;;;3.78;1.10;;;30.60;89.90;;;;;;5071138;28;20390;-66
2022/06/23 13:06:21;;;;;;;1.10;0.73;;;30.60;88.50;;;;;;5064665;28;20048;-66
2022/06/23 13:09:06;;;;;;;2.65;1.20;;;30.70;89.60;;;;;;5063814;28;20044;-66
2022/06/23 13:11:47;;;;;;;5.85;1.55;;;30.90;90.10;;;;;;5065938;28;20052;-66
2022/06/23 13:14:26;;;;;;;5.35;1.20;;;31.10;91.80;;;;;;5080792;28;20307;-66
2022/06/23 13:17:22;;;;;;;6.82;1.25;;;31.10;90.00;;;;;;5062840;28;20044;-67
2022/06/23 13:20:04;;;;;;;1.58;1.00;;;31.10;87.70;;;;;;5062539;28;20040;-66
2022/06/23 13:22:30;;;;;;;6.85;1.33;;;31.00;90.60;;;;;;5079360;28;20044;-66
2022/06/23 13:24:57;;;;;;;5.95;1.30;;;31.20;90.30;;;;;;5063486;28;20076;-66
2022/06/23 13:27:25;;;;;;;4.97;1.15;;;31.30;90.10;;;;;;5082802;28;20103;-66
2022/06/23 13:30:07;;;;;;;6.18;1.40;;;31.30;89.50;;;;;;5079403;28;20489;-66
2022/06/23 13:32:47;;;;;;;5.50;1.40;;;31.30;87.60;;;;;;5065927;28;20124;-66
2022/06/23 13:35:26;;;;;;;6.35;1.48;;;31.30;85.80;;;;;;5061902;28;20123;-66
2022/06/23 13:38:02;;;;;;;3.60;1.10;;;31.30;87.20;;;;;;5064203;28;21538;-66
2022/06/23 13:40:48;;;;;;;5.07;1.40;;;31.30;86.40;;;;;;5065573;28;20157;-66
2022/06/23 13:43:38;;;;;;;4.03;1.10;;;31.30;85.40;;;;;;5063393;28;20051;-66
2022/06/23 13:46:12;;;;;;;2.05;1.40;;;31.20;86.70;;;;;;5069930;28;20048;-66
2022/06/23 13:48:51;;;;;;;3.13;1.08;;;31.20;86.40;;;;;;5079129;28;20090;-66
2022/06/23 13:51:23;;;;;;;3.65;1.10;;;31.20;86.00;;;;;;5080287;28;20405;-66
2022/06/23 13:54:00;;;;;;;4.50;1.10;;;31.20;86.60;;;;;;5045512;28;20136;-66
2022/06/23 13:56:41;;;;;;;3.63;1.20;;;31.30;87.30;;;;;;5082043;28;20471;-66
2022/06/23 13:59:32;;;;;;;7.10;1.55;;;31.20;84.10;;;;;;5080514;28;20494;-66
2022/06/23 14:02:52;;;;;;;4.63;1.40;;;31.30;84.00;;;;;;5080388;28;20039;-66
2022/06/23 14:05:30;;;;;;;2.50;1.58;;;31.40;86.50;;;;;;4999654;28;20560;-66
2022/06/23 14:08:07;;;;;;;2.80;1.23;;;31.50;86.20;;;;;;5081529;28;20054;-66